createdAt,value
2018-03-01T00:01:44.722Z,-9.34
2018-03-01T00:04:13.125Z,-9.36
2018-03-01T00:06:41.614Z,-9.34
2018-03-01T00:09:10.085Z,-9.39
2018-03-01T00:11:38.507Z,-9.36
2018-03-01T00:14:06.943Z,-9.40
2018-03-01T00:16:35.401Z,-9.40
2018-03-01T00:19:03.769Z,-9.34
2018-03-01T00:21:32.149Z,-9.33
2018-03-01T00:24:00.543Z,-9.28
2018-03-01T00:26:28.961Z,-9.32
2018-03-01T00:28:57.351Z,-9.34
2018-03-01T00:31:26.515Z,-9.37
2018-03-01T00:33:54.891Z,-9.37
2018-03-01T00:36:23.293Z,-9.36
2018-03-01T00:38:51.672Z,-9.39
2018-03-01T00:41:20.059Z,-9.36
2018-03-01T00:43:48.498Z,-9.34
2018-03-01T00:46:16.897Z,-9.36
2018-03-01T00:48:45.345Z,-9.28
2018-03-01T00:51:13.731Z,-9.29
2018-03-01T00:53:42.100Z,-9.28
2018-03-01T00:56:10.519Z,-9.29
2018-03-01T00:58:38.921Z,-9.26
2018-03-01T01:01:08.149Z,-9.28
2018-03-01T01:03:37.342Z,-9.30
2018-03-01T01:06:05.735Z,-9.32
2018-03-01T01:08:34.123Z,-9.32
2018-03-01T01:11:02.529Z,-9.36
2018-03-01T01:13:30.964Z,-9.33
2018-03-01T01:15:59.371Z,-9.34
2018-03-01T01:18:27.753Z,-9.36
2018-03-01T01:20:56.130Z,-9.39
2018-03-01T01:23:24.544Z,-9.42
2018-03-01T01:25:53.721Z,-9.42
2018-03-01T01:28:22.130Z,-9.49
2018-03-01T01:30:50.512Z,-9.50
2018-03-01T01:33:19.690Z,-9.45
2018-03-01T01:35:48.071Z,-9.50
2018-03-01T01:38:16.493Z,-9.46
2018-03-01T01:40:44.892Z,-9.46
2018-03-01T01:43:13.271Z,-9.47
2018-03-01T01:45:41.679Z,-9.48
2018-03-01T01:48:10.061Z,-9.46
2018-03-01T01:50:56.316Z,-9.51
2018-03-01T01:53:24.796Z,-9.51
2018-03-01T01:55:53.369Z,-9.53
2018-03-01T01:58:21.798Z,-9.52
2018-03-01T02:00:50.186Z,-9.50
2018-03-01T02:03:18.597Z,-9.55
2018-03-01T02:05:47.050Z,-9.61
2018-03-01T02:10:50.709Z,-9.58
2018-03-01T02:13:19.090Z,-9.58
2018-03-01T02:15:47.500Z,-9.60
2018-03-01T02:18:15.913Z,-9.60
2018-03-01T02:20:45.052Z,-9.63
2018-03-01T02:23:13.491Z,-9.61
2018-03-01T02:25:42.830Z,-9.65
2018-03-01T02:28:11.310Z,-9.60
2018-03-01T02:30:39.783Z,-9.63
2018-03-01T02:33:08.190Z,-9.61
2018-03-01T02:35:36.637Z,-9.63
2018-03-01T02:38:05.002Z,-9.63
2018-03-01T02:40:33.431Z,-9.69
2018-03-01T02:43:01.820Z,-9.69
2018-03-01T02:45:30.203Z,-9.70
2018-03-01T02:47:58.646Z,-9.69
2018-03-01T02:50:27.058Z,-9.74
2018-03-01T02:52:55.433Z,-9.73
2018-03-01T02:55:23.814Z,-9.74
2018-03-01T02:57:52.229Z,-9.69
2018-03-01T03:00:20.646Z,-9.69
2018-03-01T03:02:49.029Z,-9.73
2018-03-01T03:05:17.413Z,-9.71
2018-03-01T03:07:45.805Z,-9.73
2018-03-01T03:10:14.193Z,-9.76
2018-03-01T03:12:42.593Z,-9.76
2018-03-01T03:15:11.761Z,-9.74
2018-03-01T03:17:40.165Z,-9.84
2018-03-01T03:20:09.337Z,-9.79
2018-03-01T03:22:37.718Z,-9.80
2018-03-01T03:25:06.123Z,-9.79
2018-03-01T03:27:35.272Z,-9.79
2018-03-01T03:30:03.734Z,-9.82
2018-03-01T03:32:32.179Z,-9.89
2018-03-01T03:35:01.336Z,-9.85
2018-03-01T03:37:29.733Z,-9.87
2018-03-01T03:39:58.109Z,-9.86
2018-03-01T03:42:26.637Z,-9.90
2018-03-01T03:44:55.030Z,-9.92
2018-03-01T03:47:23.438Z,-9.98
2018-03-01T03:49:51.852Z,-10.00
2018-03-01T03:52:21.006Z,-10.04
2018-03-01T03:54:49.417Z,-10.05
2018-03-01T03:57:17.785Z,-10.10
2018-03-01T03:59:46.161Z,-10.07
2018-03-01T04:02:15.383Z,-10.07
2018-03-01T04:04:43.792Z,-10.04
2018-03-01T04:07:12.290Z,-10.08
2018-03-01T04:09:40.770Z,-10.12
2018-03-01T04:12:09.187Z,-10.10
2018-03-01T04:14:37.556Z,-10.12
2018-03-01T04:17:05.932Z,-10.18
2018-03-01T04:19:34.359Z,-10.15
2018-03-01T04:22:02.742Z,-10.22
2018-03-01T04:24:31.133Z,-10.24
2018-03-01T04:26:59.541Z,-10.25
2018-03-01T04:29:27.947Z,-10.27
2018-03-01T04:31:57.186Z,-10.32
2018-03-01T04:34:25.625Z,-10.31
2018-03-01T04:36:54.789Z,-10.38
2018-03-01T04:39:23.221Z,-10.43
2018-03-01T04:41:51.650Z,-10.45
2018-03-01T04:44:20.051Z,-10.45
2018-03-01T04:46:48.430Z,-10.47
2018-03-01T04:49:16.883Z,-10.51
2018-03-01T04:51:45.281Z,-10.57
2018-03-01T04:54:13.730Z,-10.57
2018-03-01T04:56:42.161Z,-10.60
2018-03-01T04:59:11.335Z,-10.66
2018-03-01T05:01:40.535Z,-10.69
2018-03-01T05:04:08.940Z,-10.70
2018-03-01T05:06:38.167Z,-10.72
2018-03-01T05:09:06.590Z,-10.71
2018-03-01T05:11:35.032Z,-10.75
2018-03-01T05:14:03.478Z,-10.82
2018-03-01T05:16:32.661Z,-10.80
2018-03-01T05:19:01.030Z,-10.80
2018-03-01T05:21:29.439Z,-10.83
2018-03-01T05:23:57.865Z,-10.88
2018-03-01T05:26:26.257Z,-10.91
2018-03-01T05:28:54.638Z,-10.87
2018-03-01T05:31:23.049Z,-10.93
2018-03-01T05:33:52.217Z,-10.94
2018-03-01T05:36:20.657Z,-10.98
2018-03-01T05:38:49.043Z,-10.99
2018-03-01T05:41:17.447Z,-11.01
2018-03-01T05:43:45.895Z,-11.06
2018-03-01T05:46:14.301Z,-10.83
2018-03-01T05:48:42.693Z,-10.82
2018-03-01T05:51:11.095Z,-10.84
2018-03-01T05:53:39.490Z,-10.82
2018-03-01T05:56:07.885Z,-10.79
2018-03-01T05:58:36.309Z,-10.84
2018-03-01T06:01:04.685Z,-10.82
2018-03-01T06:03:33.861Z,-10.82
2018-03-01T06:06:02.252Z,-9.65
2018-03-01T06:08:30.685Z,-10.21
2018-03-01T06:10:59.069Z,-10.80
2018-03-01T06:13:27.471Z,-10.97
2018-03-01T06:15:55.848Z,-10.95
2018-03-01T06:18:24.257Z,-10.92
2018-03-01T06:20:52.637Z,-10.95
2018-03-01T06:23:21.012Z,-10.99
2018-03-01T06:25:49.415Z,-10.75
2018-03-01T06:28:18.554Z,-10.81
2018-03-01T06:30:46.932Z,-10.70
2018-03-01T06:33:15.332Z,-10.73
2018-03-01T06:35:43.758Z,-10.85
2018-03-01T06:38:12.912Z,-10.80
2018-03-01T06:40:41.294Z,-10.72
2018-03-01T06:43:09.701Z,-10.70
2018-03-01T06:45:38.874Z,-10.73
2018-03-01T06:48:07.263Z,-10.74
2018-03-01T06:50:36.426Z,-10.63
2018-03-01T06:53:04.886Z,-10.43
2018-03-01T06:55:33.259Z,-10.45
2018-03-01T06:58:01.641Z,-10.44
2018-03-01T07:00:30.058Z,-10.24
2018-03-01T07:02:58.447Z,-10.18
2018-03-01T07:05:26.869Z,-10.20
2018-03-01T07:07:55.261Z,-10.09
2018-03-01T07:10:23.670Z,-10.11
2018-03-01T07:12:52.079Z,-10.05
2018-03-01T07:15:20.475Z,-9.44
2018-03-01T07:17:48.871Z,-9.72
2018-03-01T07:20:17.238Z,-9.81
2018-03-01T07:22:45.631Z,-9.53
2018-03-01T07:25:14.035Z,-9.49
2018-03-01T07:27:42.501Z,-9.48
2018-03-01T07:30:10.905Z,-9.44
2018-03-01T07:32:39.284Z,-9.60
2018-03-01T07:35:07.663Z,-9.83
2018-03-01T07:37:36.045Z,-9.56
2018-03-01T07:40:04.442Z,-9.36
2018-03-01T07:42:32.811Z,-9.42
2018-03-01T07:45:01.223Z,-9.19
2018-03-01T07:47:29.650Z,-9.16
2018-03-01T07:49:58.023Z,-9.24
2018-03-01T07:52:26.422Z,-9.28
2018-03-01T07:54:54.794Z,-9.23
2018-03-01T07:57:23.250Z,-9.20
2018-03-01T07:59:51.651Z,-8.99
2018-03-01T08:02:20.030Z,-8.71
2018-03-01T08:04:48.433Z,-8.36
2018-03-01T08:07:16.881Z,-8.17
2018-03-01T08:09:45.256Z,-8.57
2018-03-01T08:12:13.772Z,-8.63
2018-03-01T08:14:42.151Z,-8.52
2018-03-01T08:17:10.526Z,-8.04
2018-03-01T08:19:38.887Z,-7.79
2018-03-01T08:22:07.276Z,-8.16
2018-03-01T08:24:35.704Z,-8.24
2018-03-01T08:27:04.080Z,-8.06
2018-03-01T08:29:32.489Z,-8.08
2018-03-01T08:32:00.870Z,-7.99
2018-03-01T08:34:29.332Z,-7.80
2018-03-01T08:36:57.697Z,-7.47
2018-03-01T08:39:26.065Z,-7.51
2018-03-01T08:41:54.456Z,-7.32
2018-03-01T08:44:22.912Z,-7.63
2018-03-01T08:46:51.315Z,-7.29
2018-03-01T08:49:19.711Z,-7.04
2018-03-01T08:51:48.137Z,-7.19
2018-03-01T08:54:16.663Z,-7.11
2018-03-01T08:56:45.076Z,-7.36
2018-03-01T08:59:13.466Z,-7.23
2018-03-01T09:01:41.833Z,-7.07
2018-03-01T09:04:10.234Z,-6.89
2018-03-01T09:06:38.639Z,-6.53
2018-03-01T09:09:07.037Z,-6.81
2018-03-01T09:11:35.441Z,-6.89
2018-03-01T09:14:03.841Z,-6.37
2018-03-01T09:16:32.209Z,-6.43
2018-03-01T09:19:00.628Z,-6.21
2018-03-01T09:21:29.019Z,-6.02
2018-03-01T09:23:57.392Z,-6.34
2018-03-01T09:26:25.794Z,-5.88
2018-03-01T09:28:54.190Z,-5.30
2018-03-01T09:31:22.581Z,-3.25
2018-03-01T09:33:51.722Z,-0.07
2018-03-01T09:36:20.124Z,1.13
2018-03-01T09:38:48.489Z,2.02
2018-03-01T09:41:16.876Z,2.50
2018-03-01T09:43:45.275Z,4.18
2018-03-01T09:46:13.669Z,2.46
2018-03-01T09:48:42.018Z,2.81
2018-03-01T09:51:10.415Z,5.09
2018-03-01T09:53:38.858Z,3.86
2018-03-01T09:56:07.218Z,2.27
2018-03-01T09:58:35.611Z,2.60
2018-03-01T10:01:03.984Z,4.02
2018-03-01T10:03:32.351Z,3.70
2018-03-01T10:06:00.769Z,4.08
2018-03-01T10:08:29.130Z,2.65
2018-03-01T10:10:57.606Z,3.25
2018-03-01T10:13:26.018Z,3.03
2018-03-01T10:15:54.457Z,3.01
2018-03-01T10:18:22.809Z,1.84
2018-03-01T10:20:51.982Z,1.14
2018-03-01T10:23:20.421Z,1.41
2018-03-01T10:25:48.786Z,2.19
2018-03-01T10:28:17.154Z,1.92
2018-03-01T10:30:45.582Z,1.82
2018-03-01T10:33:14.069Z,2.24
2018-03-01T10:35:42.454Z,2.06
2018-03-01T10:38:10.855Z,3.04
2018-03-01T10:40:39.255Z,1.51
2018-03-01T10:43:07.642Z,0.70
2018-03-01T10:45:36.078Z,0.04
2018-03-01T10:48:04.470Z,-2.15
2018-03-01T10:50:32.850Z,-2.61
2018-03-01T10:53:02.033Z,-3.34
2018-03-01T10:55:30.489Z,-3.45
2018-03-01T10:57:58.861Z,-3.92
2018-03-01T11:00:32.664Z,-3.96
2018-03-01T11:03:01.066Z,-3.90
2018-03-01T11:05:29.453Z,-3.87
2018-03-01T11:07:57.867Z,-3.61
2018-03-01T11:10:26.258Z,-3.85
2018-03-01T11:12:54.659Z,-4.05
2018-03-01T11:15:23.032Z,-3.82
2018-03-01T11:17:51.411Z,-3.98
2018-03-01T11:20:19.829Z,-3.19
2018-03-01T11:22:48.212Z,-2.99
2018-03-01T11:25:16.580Z,-2.01
2018-03-01T11:27:44.969Z,-1.87
2018-03-01T11:30:13.353Z,-1.83
2018-03-01T11:32:41.763Z,-2.76
2018-03-01T11:35:10.168Z,-3.47
2018-03-01T11:37:38.547Z,-3.99
2018-03-01T11:40:06.955Z,-3.97
2018-03-01T11:42:35.332Z,-3.65
2018-03-01T11:45:03.725Z,-3.39
2018-03-01T11:47:32.196Z,-3.19
2018-03-01T11:50:00.643Z,-3.48
2018-03-01T11:52:29.043Z,-3.74
2018-03-01T11:54:57.454Z,-3.24
2018-03-01T11:57:26.606Z,-3.23
2018-03-01T11:59:54.982Z,-2.73
2018-03-01T12:02:23.388Z,-2.96
2018-03-01T12:04:51.829Z,-3.49
2018-03-01T12:07:20.207Z,-3.69
2018-03-01T12:09:48.615Z,-3.56
2018-03-01T12:12:17.039Z,-3.55
2018-03-01T12:14:45.428Z,-3.44
2018-03-01T12:17:13.841Z,-3.50
2018-03-01T12:19:42.278Z,-3.46
2018-03-01T12:22:11.424Z,-3.32
2018-03-01T12:24:39.881Z,-2.91
2018-03-01T12:27:08.266Z,-3.18
2018-03-01T12:29:36.724Z,-3.35
2018-03-01T12:32:05.177Z,-3.00
2018-03-01T12:34:34.339Z,-2.79
2018-03-01T12:37:02.731Z,-2.28
2018-03-01T12:39:31.142Z,-2.14
2018-03-01T12:42:00.274Z,-2.57
2018-03-01T12:44:28.678Z,-2.14
2018-03-01T12:46:57.135Z,-2.22
2018-03-01T12:49:25.543Z,-2.26
2018-03-01T12:51:53.925Z,-2.34
2018-03-01T12:54:22.468Z,-2.23
2018-03-01T12:56:50.984Z,-1.99
2018-03-01T12:59:19.423Z,-1.93
2018-03-01T13:01:47.946Z,-2.08
2018-03-01T13:04:17.758Z,-2.53
2018-03-01T13:06:46.156Z,-2.58
2018-03-01T13:09:15.296Z,-2.12
2018-03-01T13:11:43.689Z,-1.95
2018-03-01T13:14:12.082Z,-1.59
2018-03-01T13:16:40.449Z,-1.59
2018-03-01T13:19:08.821Z,-1.53
2018-03-01T13:21:37.221Z,-1.15
2018-03-01T13:24:05.595Z,-1.31
2018-03-01T13:26:33.975Z,-2.12
2018-03-01T13:29:02.433Z,-2.02
2018-03-01T13:31:34.209Z,-1.75
2018-03-01T13:37:11.135Z,-1.40
2018-03-01T13:39:40.300Z,-1.89
2018-03-01T13:42:11.951Z,-1.85
2018-03-01T13:44:40.358Z,-1.29
2018-03-01T13:47:09.517Z,-1.34
2018-03-01T13:49:37.891Z,-0.74
2018-03-01T13:52:06.390Z,-0.82
2018-03-01T13:54:34.778Z,-0.55
2018-03-01T13:57:03.154Z,-0.63
2018-03-01T13:59:31.551Z,-0.88
2018-03-01T14:01:59.927Z,-0.91
2018-03-01T14:04:28.301Z,-1.23
2018-03-01T14:10:04.815Z,-0.94
2018-03-01T14:12:49.868Z,-1.48
2018-03-01T14:15:18.457Z,-1.52
2018-03-01T14:21:17.038Z,-1.89
2018-03-01T14:23:51.255Z,-1.66
2018-03-01T14:26:19.635Z,-2.01
2018-03-01T14:28:50.959Z,-1.68
2018-03-01T14:31:19.422Z,-1.63
2018-03-01T14:33:47.897Z,-1.82
2018-03-01T14:36:16.354Z,-2.24
2018-03-01T14:38:45.519Z,-2.27
2018-03-01T14:41:13.981Z,-2.34
2018-03-01T14:43:42.359Z,-2.53
2018-03-01T14:46:10.752Z,-2.34
2018-03-01T14:48:39.137Z,-2.02
2018-03-01T14:51:07.686Z,-2.00
2018-03-01T14:53:36.163Z,-2.16
2018-03-01T14:56:04.528Z,-1.92
2018-03-01T14:58:32.966Z,-1.90
2018-03-01T15:01:01.348Z,-2.23
2018-03-01T15:03:29.732Z,-2.22
2018-03-01T15:05:58.158Z,-2.39
2018-03-01T15:08:26.562Z,-2.24
2018-03-01T15:10:55.012Z,-2.44
2018-03-01T15:13:23.400Z,-2.57
2018-03-01T15:15:51.802Z,-2.82
2018-03-01T15:18:20.176Z,-2.96
2018-03-01T15:20:48.558Z,-2.78
2018-03-01T15:23:16.988Z,-2.77
2018-03-01T15:25:46.202Z,-2.79
2018-03-01T15:28:14.586Z,-3.01
2018-03-01T15:30:43.141Z,-3.31
2018-03-01T15:33:15.485Z,-3.44
2018-03-01T15:35:43.866Z,-3.38
2018-03-01T15:38:13.088Z,-3.32
2018-03-01T15:40:42.240Z,-3.37
2018-03-01T15:43:10.687Z,-3.56
2018-03-01T15:45:39.114Z,-3.70
2018-03-01T15:48:07.497Z,-3.71
2018-03-01T15:50:35.883Z,-3.61
2018-03-01T15:53:05.094Z,-3.73
2018-03-01T15:55:34.271Z,-3.80
2018-03-01T15:58:02.699Z,-3.91
2018-03-01T16:00:31.079Z,-3.91
2018-03-01T16:02:59.567Z,-4.02
2018-03-01T16:05:27.971Z,-4.04
2018-03-01T16:07:56.353Z,-4.14
2018-03-01T16:10:24.718Z,-4.24
2018-03-01T16:12:53.127Z,-4.22
2018-03-01T16:15:21.526Z,-4.33
2018-03-01T16:17:50.783Z,-4.31
2018-03-01T16:20:19.159Z,-4.38
2018-03-01T16:22:47.603Z,-4.46
2018-03-01T16:25:16.044Z,-4.50
2018-03-01T16:27:44.413Z,-4.57
2018-03-01T16:30:12.827Z,-4.68
2018-03-01T16:32:41.984Z,-4.76
2018-03-01T16:35:10.358Z,-4.75
2018-03-01T16:37:38.769Z,-4.85
2018-03-01T16:40:08.058Z,-4.90
2018-03-01T16:42:37.220Z,-4.94
2018-03-01T16:45:05.657Z,-5.04
2018-03-01T16:47:34.910Z,-5.07
2018-03-01T16:50:03.333Z,-5.10
2018-03-01T16:52:31.737Z,-5.18
2018-03-01T16:55:00.241Z,-5.21
2018-03-01T16:57:28.643Z,-5.26
2018-03-01T16:59:57.089Z,-5.31
2018-03-01T17:02:25.490Z,-5.32
2018-03-01T17:04:54.021Z,-5.36
2018-03-01T17:07:22.468Z,-5.41
2018-03-01T17:09:50.864Z,-5.45
2018-03-01T17:12:20.098Z,-5.54
2018-03-01T17:14:48.502Z,-5.53
2018-03-01T17:17:16.955Z,-5.54
2018-03-01T17:19:45.336Z,-5.59
2018-03-01T17:22:13.722Z,-5.68
2018-03-01T17:24:42.139Z,-5.74
2018-03-01T17:27:10.642Z,-5.75
2018-03-01T17:29:39.912Z,-5.80
2018-03-01T17:32:08.315Z,-5.80
2018-03-01T17:34:37.482Z,-5.85
2018-03-01T17:37:05.878Z,-5.88
2018-03-01T17:39:34.319Z,-5.92
2018-03-01T17:42:02.748Z,-5.99
2018-03-01T17:44:31.996Z,-6.03
2018-03-01T17:47:00.417Z,-6.01
2018-03-01T17:49:29.593Z,-6.03
2018-03-01T17:51:58.031Z,-6.06
2018-03-01T17:54:26.434Z,-6.11
2018-03-01T17:56:54.824Z,-6.12
2018-03-01T17:59:23.236Z,-6.19
2018-03-01T18:01:51.654Z,-6.21
2018-03-01T18:04:20.047Z,-6.26
2018-03-01T18:06:48.440Z,-6.25
2018-03-01T18:09:16.850Z,-6.29
2018-03-01T18:11:45.246Z,-6.37
2018-03-01T18:14:14.400Z,-6.37
2018-03-01T18:16:42.796Z,-6.37
2018-03-01T18:19:11.208Z,-6.44
2018-03-01T18:21:39.613Z,-6.45
2018-03-01T18:24:08.042Z,-6.53
2018-03-01T18:26:37.208Z,-6.55
2018-03-01T18:29:05.594Z,-6.57
2018-03-01T18:31:34.030Z,-6.60
2018-03-01T18:34:02.429Z,-6.60
2018-03-01T18:36:30.828Z,-6.65
2018-03-01T18:38:59.241Z,-6.65
2018-03-01T18:41:28.429Z,-6.73
2018-03-01T18:43:56.856Z,-6.74
2018-03-01T18:46:25.238Z,-6.73
2018-03-01T18:48:53.636Z,-6.79
2018-03-01T18:51:22.105Z,-6.84
2018-03-01T18:53:50.506Z,-6.79
2018-03-01T18:56:18.894Z,-6.86
2018-03-01T18:58:47.298Z,-6.90
2018-03-01T19:01:16.466Z,-6.91
2018-03-01T19:03:44.845Z,-6.97
2018-03-01T19:06:14.021Z,-6.98
2018-03-01T19:08:42.486Z,-7.00
2018-03-01T19:11:11.026Z,-7.01
2018-03-01T19:13:40.943Z,-7.02
2018-03-01T19:16:09.703Z,-7.09
2018-03-01T19:18:38.100Z,-7.11
2018-03-01T19:21:07.289Z,-7.14
2018-03-01T19:23:35.667Z,-7.20
2018-03-01T19:26:04.846Z,-7.19
2018-03-01T19:28:33.234Z,-7.22
2018-03-01T19:31:01.642Z,-7.27
2018-03-01T19:33:30.788Z,-7.27
2018-03-01T19:35:59.193Z,-7.28
2018-03-01T19:38:27.574Z,-7.30
2018-03-01T19:40:55.991Z,-7.35
2018-03-01T19:43:24.383Z,-7.38
2018-03-01T19:45:52.767Z,-7.40
2018-03-01T19:48:21.190Z,-7.39
2018-03-01T19:50:49.567Z,-7.45
2018-03-01T19:53:17.946Z,-7.47
2018-03-01T19:55:46.352Z,-7.49
2018-03-01T19:58:15.495Z,-7.48
2018-03-01T20:00:43.878Z,-7.51
2018-03-01T20:03:12.326Z,-7.53
2018-03-01T20:05:40.732Z,-7.56
2018-03-01T20:08:09.149Z,-7.56
2018-03-01T20:10:38.488Z,-7.61
2018-03-01T20:13:06.865Z,-7.63
2018-03-01T20:15:35.274Z,-7.65
2018-03-01T20:18:03.834Z,-7.68
2018-03-01T20:20:32.457Z,-7.72
2018-03-01T20:23:00.879Z,-7.68
2018-03-01T20:25:29.402Z,-7.73
2018-03-01T20:27:57.786Z,-7.76
2018-03-01T20:30:26.205Z,-7.78
2018-03-01T20:32:55.356Z,-7.80
2018-03-01T20:35:23.823Z,-7.83
2018-03-01T20:37:52.233Z,-7.87
2018-03-01T20:40:20.659Z,-7.80
2018-03-01T20:42:49.056Z,-7.90
2018-03-01T20:45:17.461Z,-7.92
2018-03-01T20:47:45.882Z,-7.96
2018-03-01T20:50:15.058Z,-7.95
2018-03-01T20:52:43.451Z,-7.94
2018-03-01T20:55:12.690Z,-8.00
2018-03-01T20:57:41.060Z,-8.03
2018-03-01T21:00:09.462Z,-8.00
2018-03-01T21:02:37.854Z,-8.03
2018-03-01T21:05:06.252Z,-8.07
2018-03-01T21:07:34.670Z,-8.06
2018-03-01T21:10:03.064Z,-8.12
2018-03-01T21:12:31.469Z,-8.13
2018-03-01T21:14:59.877Z,-8.15
2018-03-01T21:17:29.114Z,-8.22
2018-03-01T21:19:57.626Z,-8.21
2018-03-01T21:22:26.062Z,-8.24
2018-03-01T21:24:54.852Z,-8.26
2018-03-01T21:27:23.254Z,-8.24
2018-03-01T21:29:51.658Z,-8.26
2018-03-01T21:32:20.205Z,-8.29
2018-03-01T21:34:48.629Z,-8.36
2018-03-01T21:37:17.067Z,-8.35
2018-03-01T21:39:45.481Z,-8.36
2018-03-01T21:42:13.926Z,-8.42
2018-03-01T21:44:42.313Z,-8.43
2018-03-01T21:47:10.720Z,-8.47
2018-03-01T21:49:39.139Z,-8.45
2018-03-01T21:52:07.563Z,-8.50
2018-03-01T21:54:35.968Z,-8.52
2018-03-01T21:57:05.100Z,-8.54
2018-03-01T21:59:33.851Z,-8.58
2018-03-01T22:02:02.290Z,-8.56
2018-03-01T22:04:30.692Z,-8.60
2018-03-01T22:06:59.345Z,-8.61
2018-03-01T22:09:27.776Z,-8.64
2018-03-01T22:11:56.166Z,-8.63
2018-03-01T22:14:25.341Z,-8.68
2018-03-01T22:16:54.517Z,-8.69
2018-03-01T22:19:23.601Z,-8.72
2018-03-01T22:21:52.053Z,-8.75
2018-03-01T22:24:20.415Z,-8.73
2018-03-01T22:26:49.587Z,-8.78
2018-03-01T22:29:17.961Z,-8.81
2018-03-01T22:31:46.386Z,-8.82
2018-03-01T22:34:14.974Z,-8.86
2018-03-01T22:36:43.618Z,-8.84
2018-03-01T22:39:12.912Z,-8.85
2018-03-01T22:41:41.328Z,-8.87
2018-03-01T22:44:09.777Z,-8.91
2018-03-01T22:46:38.988Z,-8.93
2018-03-01T22:49:08.488Z,-8.96
2018-03-01T22:51:37.319Z,-8.98
2018-03-01T22:54:05.714Z,-8.98
2018-03-01T22:56:34.346Z,-8.99
2018-03-01T22:59:03.518Z,-9.01
2018-03-01T23:01:31.918Z,-9.02
2018-03-01T23:04:01.291Z,-9.04
2018-03-01T23:06:31.083Z,-9.10
2018-03-01T23:08:59.521Z,-9.08
2018-03-01T23:11:27.977Z,-9.10
2018-03-01T23:13:56.779Z,-9.11
2018-03-01T23:16:25.941Z,-9.14
2018-03-01T23:18:54.346Z,-9.19
2018-03-01T23:21:22.725Z,-9.18
2018-03-01T23:23:51.894Z,-9.19
2018-03-01T23:26:20.289Z,-9.24
2018-03-01T23:28:48.685Z,-9.26
2018-03-01T23:31:17.930Z,-9.29
2018-03-01T23:33:46.415Z,-9.29
2018-03-01T23:36:14.812Z,-9.35
2018-03-01T23:38:43.230Z,-9.38
2018-03-01T23:41:12.425Z,-9.39
2018-03-01T23:43:41.599Z,-9.40
2018-03-01T23:46:10.018Z,-9.46
2018-03-01T23:48:38.430Z,-9.48
2018-03-01T23:51:06.865Z,-9.49
2018-03-01T23:53:36.104Z,-9.48
2018-03-01T23:56:04.478Z,-9.54
2018-03-01T23:58:32.881Z,-9.56
